Time;durP1;ratioP1;P1;durP2;ratioP2;P2;SDS_P1;SDS_P2;PMS_P1;PMS_P2;Temp;Humidity;BMP_temperature;BMP_pressure;BME280_temperature;BME280_humidity;BME280_pressure;Samples;Min_cycle;Max_cycle;Signal;HPM_P1;HPM_P2
2022/08/15 00:02:00;;;;;;;0.90;0.90;;;;;;;13.90;100.00;90408.31;5031072;28;20108;-77
2022/08/15 00:04:27;;;;;;;0.88;0.88;;;;;;;13.84;100.00;90409.66;5030810;28;20029;-76
2022/08/15 00:06:52;;;;;;;0.77;0.77;;;;;;;13.77;100.00;90412.91;5030878;28;20128;-76
2022/08/15 00:09:22;;;;;;;0.80;0.80;;;;;;;13.70;100.00;90410.81;5030716;28;20112;-76
2022/08/15 00:11:51;;;;;;;0.93;0.93;;;;;;;13.66;100.00;90409.16;5030706;28;20022;-78
2022/08/15 00:14:19;;;;;;;0.95;0.95;;;;;;;13.66;100.00;90414.50;5030459;28;20031;-77
2022/08/15 00:16:47;;;;;;;0.70;0.70;;;;;;;13.59;100.00;90414.31;5030414;28;20042;-77
2022/08/15 00:19:20;;;;;;;0.80;0.80;;;;;;;13.58;100.00;90410.09;5030573;28;20067;-77
2022/08/15 00:21:50;;;;;;;5.68;3.72;;;;;;;13.57;100.00;90417.31;5030550;28;20034;-77
2022/08/15 00:24:21;;;;;;;5.15;3.63;;;;;;;13.61;100.00;90407.50;5033340;28;20083;-78
2022/08/15 00:26:50;;;;;;;6.85;4.72;;;;;;;13.69;100.00;90414.59;5034153;28;20029;-78
2022/08/15 00:29:19;;;;;;;5.55;4.40;;;;;;;13.70;100.00;90396.66;5033811;28;20029;-78
2022/08/15 00:31:45;;;;;;;6.05;3.88;;;;;;;13.68;100.00;90402.34;5033990;28;20033;-77
2022/08/15 00:34:12;;;;;;;5.55;3.65;;;;;;;13.64;100.00;90390.00;5033866;28;20404;-78
2022/08/15 00:36:37;;;;;;;4.95;3.83;;;;;;;13.60;100.00;90394.50;5033813;28;20091;-77
2022/08/15 00:39:04;;;;;;;9.95;4.97;;;;;;;13.57;100.00;90387.94;5033847;28;20037;-77
2022/08/15 00:41:39;;;;;;;7.35;4.10;;;;;;;13.62;100.00;90393.03;5033754;28;20496;-77
2022/08/15 00:44:06;;;;;;;6.75;3.85;;;;;;;13.61;100.00;90396.03;5033777;28;20471;-77
2022/08/15 00:46:32;;;;;;;6.78;4.25;;;;;;;13.54;100.00;90388.59;5033629;28;20091;-76
2022/08/15 00:48:57;;;;;;;7.15;4.50;;;;;;;13.53;100.00;90391.59;5033599;28;20033;-77
2022/08/15 00:51:54;;;;;;;7.30;4.30;;;;;;;13.45;100.00;90396.75;5033580;28;20510;-77
2022/08/15 00:54:28;;;;;;;7.30;4.30;;;;;;;13.39;100.00;90387.41;5032250;28;20037;-78
2022/08/15 00:57:01;;;;;;;6.30;4.30;;;;;;;13.41;100.00;90390.53;5033547;28;20483;-77
2022/08/15 00:59:33;;;;;;;7.07;4.63;;;;;;;13.52;100.00;90390.03;5033492;28;20048;-77
2022/08/15 01:02:03;;;;;;;4.90;3.75;;;;;;;13.58;100.00;90378.78;5033462;28;20034;-78
2022/08/15 01:04:28;;;;;;;6.97;4.35;;;;;;;13.66;100.00;90382.44;5033204;28;20479;-77
2022/08/15 01:06:58;;;;;;;5.85;3.63;;;;;;;13.76;100.00;90387.28;5033283;28;20028;-77
2022/08/15 01:09:25;;;;;;;5.55;3.95;;;;;;;13.79;100.00;90378.59;5033208;28;20029;-77
2022/08/15 01:11:57;;;;;;;6.55;4.38;;;;;;;13.75;100.00;90385.75;5033179;28;20036;-76
2022/08/15 01:14:24;;;;;;;8.75;4.13;;;;;;;13.76;100.00;90384.63;5033091;28;20517;-77
2022/08/15 01:16:51;;;;;;;8.80;4.28;;;;;;;13.74;100.00;90387.63;5033000;28;20045;-77
2022/08/15 01:19:23;;;;;;;4.97;3.83;;;;;;;13.62;100.00;90376.22;5033047;28;20396;-77
2022/08/15 01:21:53;;;;;;;8.27;4.80;;;;;;;13.57;100.00;90392.47;5033046;28;20041;-77
2022/08/15 01:24:39;;;;;;;4.07;3.45;;;;;;;13.48;100.00;90379.25;5032905;28;20059;-77
2022/08/15 01:27:05;;;;;;;6.25;3.75;;;;;;;13.36;100.00;90372.06;5033036;28;20032;-78
2022/08/15 01:29:32;;;;;;;6.60;3.80;;;;;;;13.33;100.00;90378.06;5032845;28;20071;-77
2022/08/15 01:31:58;;;;;;;7.25;4.63;;;;;;;13.36;100.00;90382.75;5032819;28;20036;-76
2022/08/15 01:34:24;;;;;;;6.63;4.82;;;;;;;13.24;100.00;90371.31;5032180;28;20018;-77
2022/08/15 01:36:50;;;;;;;6.13;3.95;;;;;;;13.17;100.00;90380.66;5032716;28;20037;-76
2022/08/15 01:39:28;;;;;;;6.47;3.95;;;;;;;13.19;100.00;90381.09;5032646;28;20101;-76
2022/08/15 01:42:05;;;;;;;9.00;4.78;;;;;;;13.17;100.00;90382.53;5032630;28;20030;-80
2022/08/15 01:45:15;;;;;;;7.25;4.35;;;;;;;13.20;100.00;90400.59;5032314;28;20035;-78
2022/08/15 01:47:55;;;;;;;6.50;4.38;;;;;;;13.14;100.00;90397.34;4971532;28;20543;-78
2022/08/15 01:50:46;;;;;;;6.72;4.63;;;;;;;13.16;100.00;90397.00;4971468;28;20070;-79
2022/08/15 01:53:24;;;;;;;8.85;4.93;;;;;;;13.13;100.00;90395.78;5012205;28;20673;-78
2022/08/15 01:55:52;;;;;;;5.88;4.38;;;;;;;13.15;100.00;90398.91;5032260;28;20075;-78
2022/08/15 01:58:18;;;;;;;8.13;5.03;;;;;;;13.20;100.00;90395.25;5032260;28;20121;-78
2022/08/15 02:00:50;;;;;;;7.20;4.13;;;;;;;13.32;100.00;90410.47;5032214;28;20040;-78
2022/08/15 02:03:16;;;;;;;9.50;4.22;;;;;;;13.28;100.00;90406.94;5032168;28;20037;-79
2022/08/15 02:05:41;;;;;;;9.52;4.82;;;;;;;13.23;100.00;90410.59;5032156;28;20564;-78
2022/08/15 02:08:07;;;;;;;6.47;4.15;;;;;;;13.26;100.00;90412.59;5032023;28;20030;-78
2022/08/15 02:10:32;;;;;;;6.72;3.92;;;;;;;13.26;100.00;90401.94;5032055;28;20096;-78
2022/08/15 02:12:57;;;;;;;8.63;4.57;;;;;;;13.24;100.00;90396.13;5032096;28;20080;-77
2022/08/15 02:15:23;;;;;;;7.47;4.50;;;;;;;13.19;100.00;90394.47;5031802;28;20446;-76
2022/08/15 02:17:48;;;;;;;7.97;4.30;;;;;;;13.22;100.00;90386.88;5031780;28;20058;-76
2022/08/15 02:20:16;;;;;;;7.22;4.72;;;;;;;13.21;100.00;90396.78;5032152;28;20018;-76
2022/08/15 02:22:41;;;;;;;8.57;4.60;;;;;;;13.22;100.00;90393.00;5031896;28;20029;-76
2022/08/15 02:25:08;;;;;;;6.68;4.38;;;;;;;13.17;100.00;90385.22;5031673;28;20499;-76
2022/08/15 02:27:36;;;;;;;7.22;4.72;;;;;;;13.15;100.00;90384.78;5031570;28;20080;-76
2022/08/15 02:30:22;;;;;;;8.73;5.28;;;;;;;13.11;100.00;90387.34;5031662;28;20033;-76
2022/08/15 02:32:48;;;;;;;6.15;4.05;;;;;;;13.08;100.00;90389.88;5031781;28;20060;-78
2022/08/15 02:35:16;;;;;;;8.18;4.55;;;;;;;13.02;100.00;90391.25;5031482;28;20079;-75
2022/08/15 02:37:43;;;;;;;11.43;4.30;;;;;;;12.93;100.00;90393.25;5031578;28;20076;-75
2022/08/15 02:40:12;;;;;;;7.20;4.63;;;;;;;12.90;100.00;90397.38;5031830;28;20439;-77
2022/08/15 02:42:38;;;;;;;8.90;4.55;;;;;;;12.88;100.00;90395.03;5032897;28;20461;-77
2022/08/15 02:45:12;;;;;;;5.72;3.70;;;;;;;12.99;100.00;90390.03;5032610;28;20083;-77
2022/08/15 02:47:41;;;;;;;5.93;4.28;;;;;;;13.03;100.00;90390.13;5031505;28;20403;-77
2022/08/15 02:50:08;;;;;;;8.30;4.90;;;;;;;13.09;100.00;90392.22;5031584;28;20407;-79
2022/08/15 02:52:39;;;;;;;6.43;4.10;;;;;;;13.10;100.00;90398.38;5031303;28;20026;-81
2022/08/15 02:55:07;;;;;;;6.60;4.38;;;;;;;13.03;100.00;90400.81;5031230;28;20021;-77
2022/08/15 02:57:33;;;;;;;12.00;6.95;;;;;;;13.01;100.00;90406.47;5030015;28;20396;-79
2022/08/15 02:59:58;;;;;;;7.35;4.57;;;;;;;12.90;100.00;90395.47;5031282;28;20163;-79
2022/08/15 03:02:26;;;;;;;6.35;4.28;;;;;;;12.93;100.00;90399.34;5031417;28;20492;-80
2022/08/15 03:04:51;;;;;;;6.75;4.47;;;;;;;12.92;100.00;90400.47;5031066;28;20407;-79
2022/08/15 03:07:17;;;;;;;8.23;4.45;;;;;;;12.81;100.00;90399.38;5031065;28;20048;-78
2022/08/15 03:09:43;;;;;;;7.47;4.63;;;;;;;12.72;100.00;90401.38;5145952;23;20456;-80
2022/08/15 03:12:13;;;;;;;7.57;4.57;;;;;;;12.53;100.00;90405.38;5011373;28;20112;-80
2022/08/15 03:14:40;;;;;;;7.90;4.28;;;;;;;12.36;100.00;90399.47;5011659;28;20037;-80
2022/08/15 03:17:08;;;;;;;5.30;3.83;;;;;;;12.26;100.00;90401.44;5011270;28;20034;-80
2022/08/15 03:19:36;;;;;;;9.00;4.53;;;;;;;12.21;100.00;90403.56;5011231;28;20502;-79
2022/08/15 03:22:01;;;;;;;12.30;4.70;;;;;;;12.35;100.00;90404.03;5011510;28;20109;-78
2022/08/15 03:24:27;;;;;;;9.40;4.88;;;;;;;12.39;100.00;90409.47;5011258;28;20486;-78
2022/08/15 03:26:52;;;;;;;13.38;5.60;;;;;;;12.45;100.00;90402.78;5026359;28;20061;-78
2022/08/15 03:29:19;;;;;;;6.50;4.45;;;;;;;12.42;100.00;90408.81;5011300;28;20065;-77
2022/08/15 03:31:47;;;;;;;8.73;5.40;;;;;;;12.45;100.00;90416.91;5011049;28;20101;-75
2022/08/15 03:34:15;;;;;;;8.98;5.32;;;;;;;12.44;100.00;90427.91;5011075;28;20499;-75
2022/08/15 03:36:44;;;;;;;9.20;6.07;;;;;;;12.44;100.00;90427.91;5011139;28;20057;-74
2022/08/15 03:39:10;;;;;;;10.05;5.57;;;;;;;12.37;100.00;90428.47;5011118;28;20066;-74
2022/08/15 03:41:35;;;;;;;8.93;5.45;;;;;;;12.35;100.00;90437.91;5011129;28;20522;-75
2022/08/15 03:44:01;;;;;;;14.13;7.40;;;;;;;12.47;100.00;90448.63;5011113;28;20491;-77
2022/08/15 03:46:27;;;;;;;8.88;5.10;;;;;;;12.47;100.00;90448.63;5011050;28;20026;-78
2022/08/15 03:48:56;;;;;;;7.72;4.57;;;;;;;12.49;100.00;90455.19;5010853;28;20045;-77
2022/08/15 03:51:23;;;;;;;6.00;4.20;;;;;;;12.45;100.00;90448.16;5011004;28;20022;-76
2022/08/15 03:53:57;;;;;;;9.27;6.30;;;;;;;12.44;100.00;90449.25;5010970;28;20034;-76
2022/08/15 03:56:26;;;;;;;14.18;6.57;;;;;;;12.50;100.00;90462.06;5011179;28;20029;-76
2022/08/15 03:58:53;;;;;;;13.85;4.22;;;;;;;12.39;100.00;90454.81;5014645;28;20108;-76
2022/08/15 04:01:24;;;;;;;10.75;4.30;;;;;;;12.34;100.00;90463.03;5014659;28;20037;-76
2022/08/15 04:03:51;;;;;;;6.85;4.10;;;;;;;12.35;100.00;90468.03;5014588;28;20076;-76
2022/08/15 04:06:20;;;;;;;15.90;4.20;;;;;;;12.49;100.00;90473.84;5014499;28;20045;-76
2022/08/15 04:08:48;;;;;;;6.65;3.80;;;;;;;12.46;100.00;90481.72;5014176;28;20053;-77
2022/08/15 04:11:18;;;;;;;6.15;3.88;;;;;;;12.49;100.00;90471.19;5014361;28;20431;-76
2022/08/15 04:13:45;;;;;;;6.25;4.20;;;;;;;12.60;100.00;90482.19;5014516;28;20228;-75
2022/08/15 04:16:12;;;;;;;5.28;3.85;;;;;;;12.63;100.00;90478.88;5014402;28;20303;-75
2022/08/15 04:18:37;;;;;;;8.50;5.07;;;;;;;12.59;100.00;90481.41;5029498;28;20125;-76
2022/08/15 04:21:07;;;;;;;6.40;4.20;;;;;;;12.78;100.00;90486.25;5014408;28;20591;-75
2022/08/15 04:23:33;;;;;;;11.27;5.30;;;;;;;12.93;100.00;90489.34;5014387;28;20072;-75
2022/08/15 04:25:59;;;;;;;8.48;4.53;;;;;;;13.04;100.00;90493.16;5014035;28;20048;-75
2022/08/15 04:28:26;;;;;;;8.75;4.97;;;;;;;13.06;100.00;90486.34;4995515;28;20391;-77
2022/08/15 04:30:52;;;;;;;6.70;4.32;;;;;;;13.19;100.00;90484.50;4994331;28;20041;-76
2022/08/15 04:33:24;;;;;;;6.13;4.28;;;;;;;13.18;100.00;90493.63;4994092;28;20030;-74
2022/08/15 04:36:01;;;;;;;9.05;4.28;;;;;;;13.25;100.00;90488.50;4994317;28;20085;-72
2022/08/15 04:38:27;;;;;;;7.72;4.25;;;;;;;13.15;100.00;90491.59;4994942;28;20030;-76
2022/08/15 04:40:54;;;;;;;7.78;4.93;;;;;;;13.21;100.00;90492.16;4994514;28;20042;-74
2022/08/15 04:43:22;;;;;;;6.68;4.63;;;;;;;13.35;100.00;90490.72;4994390;28;20030;-74
2022/08/15 04:45:48;;;;;;;7.53;4.95;;;;;;;13.54;100.00;90494.69;4994444;28;20131;-73
2022/08/15 04:48:15;;;;;;;10.77;5.50;;;;;;;13.75;100.00;90487.31;4994154;28;20497;-75
2022/08/15 04:50:44;;;;;;;6.80;4.95;;;;;;;13.89;100.00;90495.75;4994297;28;20029;-76
2022/08/15 04:53:11;;;;;;;11.38;3.92;;;;;;;13.97;100.00;90494.84;4994335;28;20026;-74
2022/08/15 04:55:41;;;;;;;6.47;4.25;;;;;;;13.86;100.00;90483.03;4994544;28;20458;-75
2022/08/15 04:58:09;;;;;;;8.55;5.40;;;;;;;14.00;100.00;90494.16;4994323;28;20030;-74
2022/08/15 05:00:36;;;;;;;8.23;5.13;;;;;;;14.24;100.00;90492.50;4994465;28;20058;-75
2022/08/15 05:03:06;;;;;;;15.77;8.93;;;;;;;14.62;100.00;90486.66;4994153;28;20034;-74
2022/08/15 05:05:34;;;;;;;6.97;4.70;;;;;;;14.92;100.00;90482.47;5009174;28;20037;-75
2022/08/15 05:08:00;;;;;;;7.03;4.75;;;;;;;15.44;100.00;90475.25;4993382;28;20030;-75
2022/08/15 05:10:27;;;;;;;8.02;5.28;;;;;;;17.08;100.00;90470.50;4993590;28;20047;-75
2022/08/15 05:12:52;;;;;;;6.93;4.57;;;;;;;20.58;100.00;90463.00;4993941;28;20065;-75
2022/08/15 05:15:20;;;;;;;8.02;4.55;;;;;;;22.93;100.00;90463.72;4993916;28;20062;-75
2022/08/15 05:17:47;;;;;;;4.30;3.47;;;;;;;24.55;75.27;90464.81;4996127;28;20038;-75
2022/08/15 05:20:15;;;;;;;4.68;3.80;;;;;;;25.06;67.37;90469.28;4993678;28;20109;-76
2022/08/15 05:23:14;;;;;;;4.65;3.78;;;;;;;26.52;60.18;90466.34;4993772;28;20030;-75
2022/08/15 05:25:44;;;;;;;4.95;3.70;;;;;;;27.54;57.04;90460.00;4982256;28;20045;-75
2022/08/15 05:28:10;;;;;;;4.03;3.45;;;;;;;28.86;53.28;90452.09;5008553;28;20022;-75
2022/08/15 05:30:37;;;;;;;5.45;4.15;;;;;;;28.78;52.97;90455.44;4995206;28;20029;-74
2022/08/15 05:33:05;;;;;;;3.22;2.85;;;;;;;30.16;49.19;90458.13;4993204;28;20041;-75
2022/08/15 05:35:31;;;;;;;2.90;2.55;;;;;;;30.90;46.91;90458.38;4993581;28;20416;-75
2022/08/15 05:37:59;;;;;;;3.10;2.63;;;;;;;30.68;46.59;90449.38;4993481;28;20646;-75
2022/08/15 05:40:26;;;;;;;3.13;2.80;;;;;;;30.83;46.37;90457.88;4993413;28;20038;-75
2022/08/15 05:43:08;;;;;;;2.55;2.35;;;;;;;31.21;45.74;90450.25;4993356;28;20032;-75
2022/08/15 05:45:42;;;;;;;3.00;2.67;;;;;;;30.77;47.38;90448.66;4993302;28;20034;-75
2022/08/15 05:48:16;;;;;;;2.70;2.30;;;;;;;31.19;45.74;90454.66;4993154;28;20026;-75
2022/08/15 05:50:53;;;;;;;2.70;2.40;;;;;;;31.34;45.65;90450.19;4993051;28;20069;-75
2022/08/15 05:53:31;;;;;;;3.17;2.65;;;;;;;31.34;45.63;90449.41;4993119;28;20038;-74
2022/08/15 05:56:18;;;;;;;2.88;2.58;;;;;;;30.98;45.64;90453.44;4993127;28;20030;-76
2022/08/15 05:59:04;;;;;;;2.88;2.50;;;;;;;32.68;44.19;90451.66;4992943;28;20042;-76
2022/08/15 06:01:42;;;;;;;2.38;2.17;;;;;;;33.54;41.86;90442.47;4992983;28;20562;-77
2022/08/15 06:04:39;;;;;;;3.10;2.70;;;;;;;35.04;39.93;90458.25;4992876;28;20030;-76
2022/08/15 06:07:11;;;;;;;2.85;2.50;;;;;;;33.49;41.98;90456.91;4988787;28;20042;-76
2022/08/15 06:10:05;;;;;;;2.85;2.40;;;;;;;34.71;39.61;90470.09;4992670;28;20476;-76
2022/08/15 06:12:43;;;;;;;3.22;2.50;;;;;;;33.67;41.54;90461.63;5003837;28;20038;-73
2022/08/15 06:15:17;;;;;;;4.85;3.70;;;;;;;33.56;41.06;90451.81;5012180;28;20036;-72
2022/08/15 06:17:48;;;;;;;10.82;8.77;;;;;;;32.33;43.29;90456.63;5012207;28;20517;-72
2022/08/15 06:20:20;;;;;;;4.18;3.25;;;;;;;31.76;44.79;90453.34;5011993;28;20088;-72
2022/08/15 06:23:05;;;;;;;6.88;4.70;;;;;;;34.21;41.04;90450.41;5012139;28;20499;-72
2022/08/15 06:26:11;;;;;;;6.35;4.50;;;;;;;33.81;41.88;90456.22;5012024;28;20030;-73
2022/08/15 06:28:58;;;;;;;3.97;3.10;;;;;;;34.44;41.61;90464.75;4994995;28;20104;-71
2022/08/15 06:31:39;;;;;;;3.33;2.90;;;;;;;33.90;42.32;90449.91;4992133;28;20026;-71
2022/08/15 06:34:16;;;;;;;4.22;2.80;;;;;;;32.00;45.00;90455.56;4992166;28;20121;-71
2022/08/15 06:37:09;;;;;;;4.10;3.22;;;;;;;31.52;46.61;90446.78;4992030;28;20035;-70
2022/08/15 06:39:50;;;;;;;4.53;3.30;;;;;;;32.22;45.66;90445.28;4991539;28;20053;-72
2022/08/15 06:42:33;;;;;;;4.70;2.85;;;;;;;31.38;46.05;90441.78;4991981;28;20041;-72
2022/08/15 06:45:01;;;;;;;3.15;2.85;;;;;;;31.52;45.81;90449.50;4991963;28;20034;-71
2022/08/15 06:47:28;;;;;;;60.15;38.92;;;;;;;31.79;45.09;90440.66;4991715;28;20053;-71
2022/08/15 06:49:59;;;;;;;22.90;15.43;;;;;;;31.37;46.15;90446.53;5000129;28;20037;-71
2022/08/15 06:52:26;;;;;;;6.28;4.53;;;;;;;33.28;43.21;90448.31;5011499;28;20049;-71
2022/08/15 06:54:52;;;;;;;6.63;3.47;;;;;;;33.73;41.59;90452.22;5011103;28;20034;-72
2022/08/15 06:58:02;;;;;;;3.38;2.80;;;;;;;31.74;43.64;90446.78;5011757;28;20038;-71
2022/08/15 07:00:53;;;;;;;3.85;3.08;;;;;;;31.09;44.74;90455.81;5011024;28;20049;-70
2022/08/15 07:03:57;;;;;;;3.65;3.08;;;;;;;30.20;46.79;90464.28;5008606;28;20045;-70
2022/08/15 07:06:32;;;;;;;4.30;3.58;;;;;;;31.02;47.26;90467.78;5008208;28;20033;-70
2022/08/15 07:09:07;;;;;;;3.72;3.13;;;;;;;31.81;45.43;90461.00;5010749;28;20046;-68
2022/08/15 07:11:50;;;;;;;4.97;3.58;;;;;;;32.55;42.69;90456.53;5011384;28;20038;-67
2022/08/15 07:14:15;;;;;;;5.27;3.77;;;;;;;32.35;43.70;90462.47;5011417;28;20107;-69
2022/08/15 07:17:30;;;;;;;5.15;3.67;;;;;;;31.77;44.99;90465.13;5011177;28;20426;-69
2022/08/15 07:19:56;;;;;;;3.90;3.38;;;;;;;31.53;45.51;90459.28;4994307;28;20057;-70
2022/08/15 07:22:21;;;;;;;4.10;3.42;;;;;;;31.21;45.87;90460.47;5011534;28;20037;-68
2022/08/15 07:24:55;;;;;;;4.03;3.45;;;;;;;30.99;47.24;90461.22;5010808;28;20099;-70
2022/08/15 07:27:32;;;;;;;5.15;3.50;;;;;;;32.09;45.97;90455.63;5011022;28;20069;-70
2022/08/15 07:30:06;;;;;;;5.22;3.22;;;;;;;33.64;41.11;90457.78;5011106;28;20042;-67
2022/08/15 07:32:41;;;;;;;5.00;3.63;;;;;;;32.42;43.90;90462.16;5013324;28;20053;-67
2022/08/15 07:35:11;;;;;;;4.30;3.20;;;;;;;32.59;42.93;90461.88;5014604;28;20407;-70
2022/08/15 07:37:40;;;;;;;8.40;3.50;;;;;;;32.00;43.42;90464.59;5015360;28;20048;-68
2022/08/15 07:40:14;;;;;;;4.72;4.25;;;;;;;32.58;43.24;90458.38;5014546;28;20108;-68
2022/08/15 07:42:42;;;;;;;3.97;3.40;;;;;;;32.36;43.19;90469.50;5014938;28;20412;-68
2022/08/15 07:45:36;;;;;;;4.63;3.28;;;;;;;32.57;43.17;90467.09;5014981;28;20073;-71
2022/08/15 07:48:11;;;;;;;4.40;3.38;;;;;;;33.12;41.41;90467.91;5014746;28;20823;-69
2022/08/15 07:50:39;;;;;;;6.57;3.05;;;;;;;33.08;41.21;90472.81;5014901;28;20041;-71
2022/08/15 07:53:24;;;;;;;4.40;3.30;;;;;;;32.38;42.74;90469.03;5014667;28;20128;-72
2022/08/15 07:56:09;;;;;;;5.57;3.13;;;;;;;32.90;42.02;90470.84;5014378;28;20053;-69
2022/08/15 07:58:35;;;;;;;4.43;3.17;;;;;;;33.74;40.07;90466.78;5014650;28;20088;-69
2022/08/15 08:01:22;;;;;;;4.15;3.10;;;;;;;34.09;39.16;90467.94;5014733;28;20042;-70
2022/08/15 08:04:05;;;;;;;6.32;5.72;;;;;;;35.00;38.30;90468.72;5014909;28;20042;-69
2022/08/15 08:06:54;;;;;;;6.43;4.18;;;;;;;33.87;38.48;90467.41;5014552;28;20121;-69
2022/08/15 08:09:33;;;;;;;3.65;2.85;;;;;;;33.07;40.43;90465.78;5014599;28;20050;-71
2022/08/15 08:12:20;;;;;;;4.78;3.20;;;;;;;32.41;40.71;90466.13;5014478;28;20038;-72
2022/08/15 08:15:02;;;;;;;5.38;2.92;;;;;;;33.43;39.63;90459.50;5014330;28;20042;-71
2022/08/15 08:17:36;;;;;;;3.85;2.97;;;;;;;33.86;38.92;90465.88;5014269;28;20466;-72
2022/08/15 08:20:10;;;;;;;14.43;10.45;;;;;;;34.97;38.62;90478.72;5014090;28;20034;-74
2022/08/15 08:23:02;;;;;;;3.90;2.70;;;;;;;34.38;38.74;90469.38;5013785;28;20037;-73
2022/08/15 08:25:55;;;;;;;3.63;2.97;;;;;;;32.99;40.86;90467.31;5014141;28;20042;-74
2022/08/15 08:28:58;;;;;;;3.13;2.45;;;;;;;32.58;40.15;90468.63;5013988;28;20411;-74
2022/08/15 08:31:40;;;;;;;3.20;2.90;;;;;;;32.96;42.30;90465.47;4972808;28;20081;-73
2022/08/15 08:34:39;;;;;;;4.82;3.40;;;;;;;34.45;38.60;90469.03;4972829;28;20031;-71
2022/08/15 08:37:12;;;;;;;3.63;2.70;;;;;;;37.07;35.24;90469.44;5005682;28;20420;-72
2022/08/15 08:43:15;;;;;;;3.13;2.40;;;;;;;33.47;38.55;90464.88;5012968;28;20416;-72
2022/08/15 08:46:07;;;;;;;3.33;2.88;;;;;;;31.37;42.46;90473.25;5013913;28;20030;-72
2022/08/15 08:48:55;;;;;;;5.10;2.70;;;;;;;32.06;42.99;90470.28;5013225;28;20487;-72
2022/08/15 08:51:30;;;;;;;6.53;2.85;;;;;;;31.98;44.37;90480.03;5013619;28;20092;-71
2022/08/15 08:54:05;;;;;;;5.55;3.33;;;;;;;33.10;42.58;90475.88;5013140;28;20062;-70
2022/08/15 08:56:40;;;;;;;4.43;3.28;;;;;;;34.79;40.50;90474.06;5013559;28;20038;-70
2022/08/15 08:59:11;;;;;;;3.80;3.38;;;;;;;34.24;42.00;90476.31;5013444;28;20470;-72
2022/08/15 09:01:37;;;;;;;5.30;4.10;;;;;;;34.21;40.74;90471.72;5013466;28;20419;-73
2022/08/15 09:04:07;;;;;;;4.38;3.20;;;;;;;33.58;41.31;90471.41;5014020;28;20475;-76
2022/08/15 09:06:40;;;;;;;7.88;3.58;;;;;;;33.37;42.28;90475.16;5013707;28;20069;-74
2022/08/15 09:09:32;;;;;;;9.10;3.88;;;;;;;31.88;45.90;90474.50;5013632;28;20042;-75
2022/08/15 09:14:59;;;;;;;4.20;3.45;;;;;;;33.30;41.54;90469.91;5013473;28;20476;-74
2022/08/15 09:17:28;;;;;;;4.78;3.17;;;;;;;33.63;40.61;90462.53;5013346;28;20038;-75
2022/08/15 09:20:01;;;;;;;5.53;4.03;;;;;;;33.11;42.27;90476.66;5013310;28;20037;-75
2022/08/15 09:22:26;;;;;;;4.75;3.83;;;;;;;33.17;41.30;90456.28;5012050;28;20034;-74
2022/08/15 09:24:53;;;;;;;3.90;3.45;;;;;;;32.57;43.33;90458.84;5014388;28;20045;-75
2022/08/15 09:27:47;;;;;;;4.63;4.07;;;;;;;33.36;42.77;90454.31;5013207;28;20037;-76
2022/08/15 09:30:12;;;;;;;4.72;3.47;;;;;;;33.39;41.25;90453.38;5013159;28;20054;-75
2022/08/15 09:33:02;;;;;;;6.07;4.25;;;;;;;32.28;43.57;90457.22;5013205;28;20153;-76
2022/08/15 09:35:36;;;;;;;6.57;4.20;;;;;;;33.64;42.34;90453.03;5013024;28;20046;-76
2022/08/15 09:38:32;;;;;;;7.38;3.83;;;;;;;33.24;40.91;90457.97;5012863;28;20492;-75
2022/08/15 09:41:35;;;;;;;6.22;4.85;;;;;;;32.97;42.81;90453.97;5013010;28;20233;-75
2022/08/15 09:44:06;;;;;;;;;;;;;;;33.29;41.26;90455.34;5013357;28;20030;-73
2022/08/15 09:47:08;;;;;;;5.93;4.10;;;;;;;32.88;41.30;90458.75;5012830;28;19921;-77
2022/08/15 09:49:57;;;;;;;7.65;4.45;;;;;;;33.20;42.25;90452.63;5012677;28;20512;-75
2022/08/15 09:52:44;;;;;;;5.75;4.22;;;;;;;32.00;42.56;90448.09;5012786;28;20050;-76
2022/08/15 09:55:44;;;;;;;6.13;4.22;;;;;;;32.24;42.64;90456.59;5012636;28;20115;-77
2022/08/15 09:58:20;;;;;;;6.22;4.57;;;;;;;33.88;41.30;90455.13;4990613;28;20084;-77
2022/08/15 10:01:03;;;;;;;8.10;4.88;;;;;;;33.93;40.16;90440.72;5012579;28;20120;-75
2022/08/15 10:03:43;;;;;;;5.47;4.32;;;;;;;33.40;41.42;90454.91;5012619;28;20042;-75
2022/08/15 10:06:12;;;;;;;7.38;5.45;;;;;;;31.52;44.49;90449.50;5012525;28;20065;-72
2022/08/15 10:09:31;;;;;;;8.50;5.32;;;;;;;32.25;43.91;90457.34;5011782;28;20512;-71
2022/08/15 10:12:06;;;;;;;7.97;5.82;;;;;;;31.61;44.50;90455.06;5010526;28;20393;-71
2022/08/15 10:14:53;;;;;;;6.70;5.07;;;;;;;32.14;44.86;90449.50;5012324;28;20056;-72
2022/08/15 10:17:37;;;;;;;9.65;5.93;;;;;;;31.95;44.49;90451.44;5012305;28;20026;-70
2022/08/15 10:20:14;;;;;;;8.18;6.35;;;;;;;32.21;43.91;90457.50;5012258;28;20065;-71
2022/08/15 10:22:53;;;;;;;9.13;6.45;;;;;;;32.20;44.37;90450.47;5012126;28;20080;-69
2022/08/15 10:25:22;;;;;;;8.52;6.15;;;;;;;32.42;44.99;90453.13;5012146;28;20022;-74
2022/08/15 10:27:54;;;;;;;8.50;6.25;;;;;;;32.38;44.03;90450.53;5011964;28;20044;-74
2022/08/15 10:30:23;;;;;;;9.73;6.65;;;;;;;31.49;46.19;90448.44;5011969;28;20091;-68
2022/08/15 10:32:49;;;;;;;9.20;6.50;;;;;;;31.90;45.65;90459.53;5011890;28;20056;-69
2022/08/15 10:35:44;;;;;;;9.20;6.03;;;;;;;32.75;45.38;90456.09;5011976;28;20037;-70
2022/08/15 10:38:13;;;;;;;10.07;6.47;;;;;;;32.12;43.67;90449.19;5011831;28;20037;-73
2022/08/15 10:41:13;;;;;;;7.47;5.72;;;;;;;32.77;43.30;90448.91;5011855;28;20419;-70
2022/08/15 10:43:48;;;;;;;8.02;5.43;;;;;;;32.68;43.04;90451.66;4988811;28;20559;-71
2022/08/15 10:46:29;;;;;;;8.40;5.45;;;;;;;32.73;43.34;90445.53;5011475;28;20033;-71
2022/08/15 10:49:04;;;;;;;7.97;6.15;;;;;;;33.92;41.10;90445.44;5011674;28;20022;-72
2022/08/15 10:52:01;;;;;;;8.88;6.25;;;;;;;33.96;41.31;90450.06;5011795;28;20086;-71
2022/08/15 10:54:48;;;;;;;9.38;6.70;;;;;;;33.30;43.26;90456.91;5011759;28;20434;-69
2022/08/15 10:57:19;;;;;;;8.20;5.82;;;;;;;33.78;41.59;90431.53;5011643;28;20030;-70
2022/08/15 10:59:52;;;;;;;9.35;6.80;;;;;;;33.94;41.65;90442.25;5011375;28;20117;-67
2022/08/15 11:02:43;;;;;;;8.38;5.75;;;;;;;32.79;43.17;90440.19;5011493;28;20119;-69
2022/08/15 11:05:14;;;;;;;7.78;5.25;;;;;;;33.18;41.35;90443.28;5010264;28;20411;-69
2022/08/15 11:08:00;;;;;;;9.57;7.72;;;;;;;33.70;40.27;90444.13;5010910;28;20065;-69
2022/08/15 11:10:28;;;;;;;6.65;5.15;;;;;;;33.17;39.97;90433.47;5009638;28;20434;-69
2022/08/15 11:13:05;;;;;;;7.63;5.50;;;;;;;33.93;39.32;90449.75;5011461;28;20033;-72
2022/08/15 11:15:54;;;;;;;7.55;5.70;;;;;;;33.48;40.66;90449.84;5011451;28;20029;-72
2022/08/15 11:18:44;;;;;;;7.28;5.40;;;;;;;33.82;39.35;90443.19;5010953;28;20026;-72
2022/08/15 11:21:18;;;;;;;8.93;6.13;;;;;;;33.40;40.85;90443.13;4982574;28;20042;-71
2022/08/15 11:23:52;;;;;;;8.32;5.70;;;;;;;33.19;40.30;90450.31;5011333;28;20026;-71
2022/08/15 11:26:23;;;;;;;7.75;6.15;;;;;;;32.47;42.11;90452.53;5011085;28;20121;-71
2022/08/15 11:28:56;;;;;;;10.05;5.63;;;;;;;32.67;42.56;90443.84;5011046;28;20527;-68
2022/08/15 11:31:21;;;;;;;;;;;;;;;33.85;39.62;90439.50;5011848;28;20037;-71
2022/08/15 11:33:53;;;;;;;8.07;5.80;;;;;;;34.12;39.80;90447.69;5011278;28;20416;-70
2022/08/15 11:36:22;;;;;;;7.40;5.50;;;;;;;33.09;40.90;90446.03;5011341;28;20037;-69
2022/08/15 11:38:50;;;;;;;5.80;4.80;;;;;;;32.70;41.81;90437.44;5011304;28;20098;-75
2022/08/15 11:41:27;;;;;;;7.97;5.18;;;;;;;33.34;40.58;90442.97;5011085;28;20125;-73
2022/08/15 11:43:56;;;;;;;8.38;5.05;;;;;;;35.76;36.51;90449.78;5011313;28;20499;-72
2022/08/15 11:46:23;;;;;;;6.88;5.25;;;;;;;33.41;39.28;90439.13;5011226;28;20038;-73
2022/08/15 11:49:03;;;;;;;7.38;5.03;;;;;;;33.45;40.09;90429.47;5011143;28;20018;-72
2022/08/15 11:51:36;;;;;;;6.10;5.40;;;;;;;32.65;41.11;90427.75;5011190;28;20088;-71
2022/08/15 11:54:28;;;;;;;7.20;5.40;;;;;;;32.61;40.17;90438.16;5011272;28;20064;-67
2022/08/15 11:57:02;;;;;;;6.70;4.80;;;;;;;33.03;39.81;90445.88;5011261;28;20506;-71
2022/08/15 11:59:34;;;;;;;6.68;5.22;;;;;;;33.16;40.08;90448.50;5011278;28;20038;-71
2022/08/15 12:02:05;;;;;;;6.78;4.85;;;;;;;32.40;41.36;90444.56;5011104;28;20105;-71
2022/08/15 12:04:35;;;;;;;5.97;4.80;;;;;;;32.98;40.23;90439.00;5011066;28;20032;-72
2022/08/15 12:07:11;;;;;;;7.70;6.00;;;;;;;33.27;41.59;90433.00;5011152;28;20037;-75
2022/08/15 12:09:37;;;;;;;7.25;5.50;;;;;;;32.99;41.04;90426.00;5010679;28;20045;-74